sensor_id;sensor_type;location;lat;lon;timestamp;temperature;humidity
67194;DHT22;54121;53.508;49.422;2022-07-15T00:02:09;23.40;60.10
67194;DHT22;54121;53.508;49.422;2022-07-15T00:04:36;23.30;60.30
67194;DHT22;54121;53.508;49.422;2022-07-15T00:07:04;23.10;61.60
67194;DHT22;54121;53.508;49.422;2022-07-15T00:09:30;23.00;61.80
67194;DHT22;54121;53.508;49.422;2022-07-15T00:14:42;23.00;63.10
67194;DHT22;54121;53.508;49.422;2022-07-15T00:17:10;23.00;64.20
67194;DHT22;54121;53.508;49.422;2022-07-15T00:19:37;22.80;62.40
67194;DHT22;54121;53.508;49.422;2022-07-15T00:22:03;22.80;62.70
67194;DHT22;54121;53.508;49.422;2022-07-15T00:24:30;22.80;63.30
67194;DHT22;54121;53.508;49.422;2022-07-15T00:26:56;22.70;63.00
67194;DHT22;54121;53.508;49.422;2022-07-15T00:29:23;22.60;63.70
67194;DHT22;54121;53.508;49.422;2022-07-15T00:31:52;22.40;65.00
67194;DHT22;54121;53.508;49.422;2022-07-15T00:34:20;22.20;66.30
67194;DHT22;54121;53.508;49.422;2022-07-15T00:36:47;22.10;67.40
67194;DHT22;54121;53.508;49.422;2022-07-15T00:39:15;22.30;67.90
67194;DHT22;54121;53.508;49.422;2022-07-15T00:41:42;21.90;67.60
67194;DHT22;54121;53.508;49.422;2022-07-15T00:44:09;22.20;67.40
67194;DHT22;54121;53.508;49.422;2022-07-15T00:46:36;22.10;67.50
67194;DHT22;54121;53.508;49.422;2022-07-15T00:49:06;22.50;66.50
67194;DHT22;54121;53.508;49.422;2022-07-15T00:51:41;22.90;65.30
67194;DHT22;54121;53.508;49.422;2022-07-15T00:54:10;22.90;63.70
67194;DHT22;54121;53.508;49.422;2022-07-15T00:56:49;22.80;65.10
67194;DHT22;54121;53.508;49.422;2022-07-15T01:01:43;22.90;65.40
67194;DHT22;54121;53.508;49.422;2022-07-15T01:04:12;23.20;64.70
67194;DHT22;54121;53.508;49.422;2022-07-15T01:06:39;23.30;63.30
67194;DHT22;54121;53.508;49.422;2022-07-15T01:09:06;23.20;62.70
67194;DHT22;54121;53.508;49.422;2022-07-15T01:14:00;23.40;63.40
67194;DHT22;54121;53.508;49.422;2022-07-15T01:16:28;23.30;63.40
67194;DHT22;54121;53.508;49.422;2022-07-15T01:18:55;23.50;63.60
67194;DHT22;54121;53.508;49.422;2022-07-15T01:21:22;23.20;62.30
67194;DHT22;54121;53.508;49.422;2022-07-15T01:23:49;23.30;62.80
67194;DHT22;54121;53.508;49.422;2022-07-15T01:28:42;22.80;62.00
67194;DHT22;54121;53.508;49.422;2022-07-15T01:31:09;22.30;63.40
67194;DHT22;54121;53.508;49.422;2022-07-15T01:33:36;21.80;66.20
67194;DHT22;54121;53.508;49.422;2022-07-15T01:36:05;22.00;67.10
67194;DHT22;54121;53.508;49.422;2022-07-15T01:38:31;22.50;65.70
67194;DHT22;54121;53.508;49.422;2022-07-15T01:40:58;22.50;63.70
67194;DHT22;54121;53.508;49.422;2022-07-15T01:45:51;22.10;63.90
67194;DHT22;54121;53.508;49.422;2022-07-15T01:48:18;22.30;61.60
67194;DHT22;54121;53.508;49.422;2022-07-15T01:51:03;22.30;63.40
67194;DHT22;54121;53.508;49.422;2022-07-15T01:53:29;21.70;62.70
67194;DHT22;54121;53.508;49.422;2022-07-15T01:55:56;21.90;65.10
67194;DHT22;54121;53.508;49.422;2022-07-15T01:58:23;22.30;63.50
67194;DHT22;54121;53.508;49.422;2022-07-15T02:00:49;21.90;64.60
67194;DHT22;54121;53.508;49.422;2022-07-15T02:03:16;21.60;66.90
67194;DHT22;54121;53.508;49.422;2022-07-15T02:05:43;21.90;68.00
67194;DHT22;54121;53.508;49.422;2022-07-15T02:08:10;22.40;65.30
67194;DHT22;54121;53.508;49.422;2022-07-15T02:10:36;22.80;64.00
67194;DHT22;54121;53.508;49.422;2022-07-15T02:13:10;23.50;60.90
67194;DHT22;54121;53.508;49.422;2022-07-15T02:15:37;23.80;60.00
67194;DHT22;54121;53.508;49.422;2022-07-15T02:18:04;24.30;58.00
67194;DHT22;54121;53.508;49.422;2022-07-15T02:20:31;24.30;57.90
67194;DHT22;54121;53.508;49.422;2022-07-15T02:22:58;24.80;56.30
67194;DHT22;54121;53.508;49.422;2022-07-15T02:25:25;25.40;53.80
67194;DHT22;54121;53.508;49.422;2022-07-15T02:27:54;25.40;53.30
67194;DHT22;54121;53.508;49.422;2022-07-15T02:30:26;25.70;51.60
67194;DHT22;54121;53.508;49.422;2022-07-15T02:32:53;26.00;51.40
67194;DHT22;54121;53.508;49.422;2022-07-15T02:35:20;26.30;50.00
67194;DHT22;54121;53.508;49.422;2022-07-15T02:37:46;26.00;49.90
67194;DHT22;54121;53.508;49.422;2022-07-15T02:40:13;26.20;50.70
67194;DHT22;54121;53.508;49.422;2022-07-15T02:45:07;27.40;48.00
67194;DHT22;54121;53.508;49.422;2022-07-15T02:47:34;27.10;47.40
67194;DHT22;54121;53.508;49.422;2022-07-15T02:50:01;27.00;48.60
67194;DHT22;54121;53.508;49.422;2022-07-15T02:52:27;27.20;47.90
67194;DHT22;54121;53.508;49.422;2022-07-15T02:57:20;27.30;48.10
67194;DHT22;54121;53.508;49.422;2022-07-15T02:59:47;27.30;46.70
67194;DHT22;54121;53.508;49.422;2022-07-15T03:02:14;27.70;47.20
67194;DHT22;54121;53.508;49.422;2022-07-15T03:04:40;28.30;45.40
67194;DHT22;54121;53.508;49.422;2022-07-15T03:07:07;28.10;43.90
67194;DHT22;54121;53.508;49.422;2022-07-15T03:09:33;27.80;46.10
67194;DHT22;54121;53.508;49.422;2022-07-15T03:12:01;28.30;44.50
67194;DHT22;54121;53.508;49.422;2022-07-15T03:14:27;28.70;43.20
67194;DHT22;54121;53.508;49.422;2022-07-15T03:16:54;28.80;42.20
67194;DHT22;54121;53.508;49.422;2022-07-15T03:19:21;29.70;40.90
67194;DHT22;54121;53.508;49.422;2022-07-15T03:21:48;30.00;39.80
67194;DHT22;54121;53.508;49.422;2022-07-15T03:24:15;29.90;38.60
67194;DHT22;54121;53.508;49.422;2022-07-15T03:26:42;29.90;39.70
67194;DHT22;54121;53.508;49.422;2022-07-15T03:29:08;30.60;37.70
67194;DHT22;54121;53.508;49.422;2022-07-15T03:31:35;29.90;36.90
67194;DHT22;54121;53.508;49.422;2022-07-15T03:34:02;29.90;38.10
67194;DHT22;54121;53.508;49.422;2022-07-15T03:36:29;29.80;38.40
67194;DHT22;54121;53.508;49.422;2022-07-15T03:38:55;29.90;37.60
67194;DHT22;54121;53.508;49.422;2022-07-15T03:41:22;30.40;36.90
67194;DHT22;54121;53.508;49.422;2022-07-15T03:43:49;30.40;37.90
67194;DHT22;54121;53.508;49.422;2022-07-15T03:46:15;30.60;35.60
67194;DHT22;54121;53.508;49.422;2022-07-15T03:48:42;30.70;36.80
67194;DHT22;54121;53.508;49.422;2022-07-15T03:51:09;30.80;34.30
67194;DHT22;54121;53.508;49.422;2022-07-15T03:53:35;30.70;34.10
67194;DHT22;54121;53.508;49.422;2022-07-15T03:56:02;30.70;35.70
67194;DHT22;54121;53.508;49.422;2022-07-15T03:58:28;31.70;31.80
67194;DHT22;54121;53.508;49.422;2022-07-15T04:00:56;31.60;32.90
67194;DHT22;54121;53.508;49.422;2022-07-15T04:03:23;32.20;30.00
67194;DHT22;54121;53.508;49.422;2022-07-15T04:05:50;32.30;31.10
67194;DHT22;54121;53.508;49.422;2022-07-15T04:08:16;32.60;28.70
67194;DHT22;54121;53.508;49.422;2022-07-15T04:10:43;33.20;29.00
67194;DHT22;54121;53.508;49.422;2022-07-15T04:13:10;34.00;27.90
67194;DHT22;54121;53.508;49.422;2022-07-15T04:15:36;34.50;25.70
67194;DHT22;54121;53.508;49.422;2022-07-15T04:18:03;34.80;24.90
67194;DHT22;54121;53.508;49.422;2022-07-15T04:20:30;35.30;25.20
67194;DHT22;54121;53.508;49.422;2022-07-15T04:22:57;35.30;24.50
67194;DHT22;54121;53.508;49.422;2022-07-15T04:25:23;35.20;24.10
67194;DHT22;54121;53.508;49.422;2022-07-15T04:27:50;34.90;23.10
67194;DHT22;54121;53.508;49.422;2022-07-15T04:30:16;34.20;24.30
67194;DHT22;54121;53.508;49.422;2022-07-15T04:32:43;34.70;24.40
67194;DHT22;54121;53.508;49.422;2022-07-15T04:35:09;35.40;23.70
67194;DHT22;54121;53.508;49.422;2022-07-15T04:37:36;36.10;22.80
67194;DHT22;54121;53.508;49.422;2022-07-15T04:40:02;35.80;21.80
67194;DHT22;54121;53.508;49.422;2022-07-15T04:42:29;35.80;22.90
67194;DHT22;54121;53.508;49.422;2022-07-15T04:44:56;36.80;22.60
67194;DHT22;54121;53.508;49.422;2022-07-15T04:47:22;38.30;21.00
67194;DHT22;54121;53.508;49.422;2022-07-15T04:49:49;38.80;19.40
67194;DHT22;54121;53.508;49.422;2022-07-15T04:52:33;38.70;20.20
67194;DHT22;54121;53.508;49.422;2022-07-15T04:55:01;40.00;18.90
67194;DHT22;54121;53.508;49.422;2022-07-15T04:57:28;40.20;18.10
67194;DHT22;54121;53.508;49.422;2022-07-15T04:59:54;40.20;17.40
67194;DHT22;54121;53.508;49.422;2022-07-15T05:02:21;40.40;17.80
67194;DHT22;54121;53.508;49.422;2022-07-15T05:04:47;41.10;16.40
67194;DHT22;54121;53.508;49.422;2022-07-15T05:07:14;40.70;17.00
67194;DHT22;54121;53.508;49.422;2022-07-15T05:09:41;41.00;17.10
67194;DHT22;54121;53.508;49.422;2022-07-15T05:12:08;41.70;16.30
67194;DHT22;54121;53.508;49.422;2022-07-15T05:14:34;41.20;16.00
67194;DHT22;54121;53.508;49.422;2022-07-15T05:17:01;42.00;15.60
67194;DHT22;54121;53.508;49.422;2022-07-15T05:21:54;41.80;14.20
67194;DHT22;54121;53.508;49.422;2022-07-15T05:24:21;42.00;14.10
67194;DHT22;54121;53.508;49.422;2022-07-15T05:26:47;42.30;14.60
67194;DHT22;54121;53.508;49.422;2022-07-15T05:29:14;42.40;13.30
67194;DHT22;54121;53.508;49.422;2022-07-15T05:31:41;42.60;14.50
67194;DHT22;54121;53.508;49.422;2022-07-15T05:34:08;42.80;13.40
67194;DHT22;54121;53.508;49.422;2022-07-15T05:36:35;42.60;13.60
67194;DHT22;54121;53.508;49.422;2022-07-15T05:39:02;42.50;13.90
67194;DHT22;54121;53.508;49.422;2022-07-15T05:41:28;42.30;13.40
67194;DHT22;54121;53.508;49.422;2022-07-15T05:43:58;41.90;14.20
67194;DHT22;54121;53.508;49.422;2022-07-15T05:46:25;41.90;14.70
67194;DHT22;54121;53.508;49.422;2022-07-15T05:48:52;41.10;16.70
67194;DHT22;54121;53.508;49.422;2022-07-15T05:51:18;41.40;15.40
67194;DHT22;54121;53.508;49.422;2022-07-15T05:53:45;41.30;15.50
67194;DHT22;54121;53.508;49.422;2022-07-15T05:56:12;41.50;15.00
67194;DHT22;54121;53.508;49.422;2022-07-15T05:58:38;41.80;14.30
67194;DHT22;54121;53.508;49.422;2022-07-15T06:01:05;41.40;13.80
67194;DHT22;54121;53.508;49.422;2022-07-15T06:05:58;41.30;14.50
67194;DHT22;54121;53.508;49.422;2022-07-15T06:08:25;40.00;16.60
67194;DHT22;54121;53.508;49.422;2022-07-15T06:10:52;40.00;16.80
67194;DHT22;54121;53.508;49.422;2022-07-15T06:13:19;40.50;16.50
67194;DHT22;54121;53.508;49.422;2022-07-15T06:15:46;40.60;16.60
67194;DHT22;54121;53.508;49.422;2022-07-15T06:18:13;40.40;16.80
67194;DHT22;54121;53.508;49.422;2022-07-15T06:20:40;40.20;16.60
67194;DHT22;54121;53.508;49.422;2022-07-15T06:23:06;40.30;15.70
67194;DHT22;54121;53.508;49.422;2022-07-15T06:25:33;40.70;16.30
67194;DHT22;54121;53.508;49.422;2022-07-15T06:27:59;40.60;16.50
67194;DHT22;54121;53.508;49.422;2022-07-15T06:30:27;40.90;16.70
67194;DHT22;54121;53.508;49.422;2022-07-15T06:33:00;40.20;17.30
67194;DHT22;54121;53.508;49.422;2022-07-15T06:35:26;40.20;17.30
67194;DHT22;54121;53.508;49.422;2022-07-15T06:37:53;39.90;16.80
67194;DHT22;54121;53.508;49.422;2022-07-15T06:40:19;40.20;17.10
67194;DHT22;54121;53.508;49.422;2022-07-15T06:42:46;39.80;16.80
67194;DHT22;54121;53.508;49.422;2022-07-15T06:45:13;40.50;17.00
67194;DHT22;54121;53.508;49.422;2022-07-15T06:47:41;40.10;17.00
67194;DHT22;54121;53.508;49.422;2022-07-15T06:50:10;39.80;17.20
67194;DHT22;54121;53.508;49.422;2022-07-15T06:52:42;39.60;17.90
67194;DHT22;54121;53.508;49.422;2022-07-15T06:55:09;39.10;18.50
67194;DHT22;54121;53.508;49.422;2022-07-15T06:57:39;38.90;19.20
67194;DHT22;54121;53.508;49.422;2022-07-15T07:00:07;38.50;19.20
67194;DHT22;54121;53.508;49.422;2022-07-15T07:02:35;38.80;18.60
67194;DHT22;54121;53.508;49.422;2022-07-15T07:05:07;38.60;19.40
67194;DHT22;54121;53.508;49.422;2022-07-15T07:07:35;38.60;19.60
67194;DHT22;54121;53.508;49.422;2022-07-15T07:10:02;38.50;18.50
67194;DHT22;54121;53.508;49.422;2022-07-15T07:12:28;38.40;19.30
67194;DHT22;54121;53.508;49.422;2022-07-15T07:14:55;38.50;19.30
67194;DHT22;54121;53.508;49.422;2022-07-15T07:17:22;38.10;19.30
67194;DHT22;54121;53.508;49.422;2022-07-15T07:19:48;38.50;19.10
67194;DHT22;54121;53.508;49.422;2022-07-15T07:24:58;38.40;18.20
67194;DHT22;54121;53.508;49.422;2022-07-15T07:27:25;37.50;19.20
67194;DHT22;54121;53.508;49.422;2022-07-15T07:29:52;37.70;19.00
67194;DHT22;54121;53.508;49.422;2022-07-15T07:32:19;38.00;18.90
67194;DHT22;54121;53.508;49.422;2022-07-15T07:34:51;37.00;19.00
67194;DHT22;54121;53.508;49.422;2022-07-15T07:37:28;37.00;19.80
67194;DHT22;54121;53.508;49.422;2022-07-15T07:39:55;37.30;19.70
67194;DHT22;54121;53.508;49.422;2022-07-15T07:42:21;37.20;19.50
67194;DHT22;54121;53.508;49.422;2022-07-15T07:44:54;37.20;19.80
67194;DHT22;54121;53.508;49.422;2022-07-15T07:47:21;36.40;20.20
67194;DHT22;54121;53.508;49.422;2022-07-15T07:49:48;36.10;20.70
67194;DHT22;54121;53.508;49.422;2022-07-15T07:52:15;35.90;20.90
67194;DHT22;54121;53.508;49.422;2022-07-15T07:54:41;36.20;20.20
67194;DHT22;54121;53.508;49.422;2022-07-15T07:57:11;36.10;21.10
67194;DHT22;54121;53.508;49.422;2022-07-15T07:59:37;36.00;21.30
67194;DHT22;54121;53.508;49.422;2022-07-15T08:02:09;35.70;21.60
67194;DHT22;54121;53.508;49.422;2022-07-15T08:04:36;35.50;21.40
67194;DHT22;54121;53.508;49.422;2022-07-15T08:07:20;35.40;21.60
67194;DHT22;54121;53.508;49.422;2022-07-15T08:09:54;35.30;23.10
67194;DHT22;54121;53.508;49.422;2022-07-15T08:12:41;35.30;23.20
67194;DHT22;54121;53.508;49.422;2022-07-15T08:15:13;35.40;23.10
67194;DHT22;54121;53.508;49.422;2022-07-15T08:17:41;35.00;22.40
67194;DHT22;54121;53.508;49.422;2022-07-15T08:20:08;35.00;22.00
67194;DHT22;54121;53.508;49.422;2022-07-15T08:22:36;35.00;22.00
67194;DHT22;54121;53.508;49.422;2022-07-15T08:25:03;34.80;22.10
67194;DHT22;54121;53.508;49.422;2022-07-15T08:27:30;34.70;23.30
67194;DHT22;54121;53.508;49.422;2022-07-15T08:30:20;34.40;23.90
67194;DHT22;54121;53.508;49.422;2022-07-15T08:32:47;34.20;23.10
67194;DHT22;54121;53.508;49.422;2022-07-15T08:35:13;34.30;23.70
67194;DHT22;54121;53.508;49.422;2022-07-15T08:37:40;34.20;24.00
67194;DHT22;54121;53.508;49.422;2022-07-15T08:40:07;33.90;24.70
67194;DHT22;54121;53.508;49.422;2022-07-15T08:42:39;34.30;24.20
67194;DHT22;54121;53.508;49.422;2022-07-15T08:45:09;34.30;24.40
67194;DHT22;54121;53.508;49.422;2022-07-15T08:47:38;34.30;24.10
67194;DHT22;54121;53.508;49.422;2022-07-15T08:50:06;34.50;23.80
67194;DHT22;54121;53.508;49.422;2022-07-15T08:52:37;34.60;23.70
67194;DHT22;54121;53.508;49.422;2022-07-15T08:55:05;34.70;23.40
67194;DHT22;54121;53.508;49.422;2022-07-15T08:57:31;34.20;23.80
67194;DHT22;54121;53.508;49.422;2022-07-15T08:59:58;34.30;23.20
67194;DHT22;54121;53.508;49.422;2022-07-15T09:02:25;34.20;22.40
67194;DHT22;54121;53.508;49.422;2022-07-15T09:08:12;34.30;23.40
67194;DHT22;54121;53.508;49.422;2022-07-15T09:13:22;34.20;23.10
67194;DHT22;54121;53.508;49.422;2022-07-15T09:15:49;34.50;22.40
67194;DHT22;54121;53.508;49.422;2022-07-15T09:18:21;33.70;23.60
67194;DHT22;54121;53.508;49.422;2022-07-15T09:20:49;33.90;23.30
67194;DHT22;54121;53.508;49.422;2022-07-15T09:23:18;33.90;22.60
67194;DHT22;54121;53.508;49.422;2022-07-15T09:28:45;34.20;23.40
67194;DHT22;54121;53.508;49.422;2022-07-15T09:31:12;33.60;23.80
67194;DHT22;54121;53.508;49.422;2022-07-15T09:34:01;33.90;23.60
67194;DHT22;54121;53.508;49.422;2022-07-15T09:36:32;34.50;23.20
67194;DHT22;54121;53.508;49.422;2022-07-15T09:39:16;34.40;21.90
67194;DHT22;54121;53.508;49.422;2022-07-15T09:41:55;34.40;22.80
67194;DHT22;54121;53.508;49.422;2022-07-15T09:44:31;34.50;22.50
67194;DHT22;54121;53.508;49.422;2022-07-15T09:47:17;34.60;22.80
67194;DHT22;54121;53.508;49.422;2022-07-15T09:49:45;34.80;22.40
67194;DHT22;54121;53.508;49.422;2022-07-15T09:52:13;34.90;22.50
67194;DHT22;54121;53.508;49.422;2022-07-15T09:54:43;34.80;22.50
67194;DHT22;54121;53.508;49.422;2022-07-15T09:57:12;35.00;22.40
67194;DHT22;54121;53.508;49.422;2022-07-15T09:59:45;34.90;22.50
67194;DHT22;54121;53.508;49.422;2022-07-15T10:02:18;35.30;22.00
67194;DHT22;54121;53.508;49.422;2022-07-15T10:04:45;34.80;22.80
67194;DHT22;54121;53.508;49.422;2022-07-15T10:07:13;34.80;23.00
67194;DHT22;54121;53.508;49.422;2022-07-15T10:09:40;34.60;22.50
67194;DHT22;54121;53.508;49.422;2022-07-15T10:12:13;34.80;22.40
67194;DHT22;54121;53.508;49.422;2022-07-15T10:18:12;34.60;22.90
67194;DHT22;54121;53.508;49.422;2022-07-15T10:21:06;34.50;23.10
67194;DHT22;54121;53.508;49.422;2022-07-15T10:23:39;34.60;22.10
67194;DHT22;54121;53.508;49.422;2022-07-15T10:29:29;35.20;21.50
67194;DHT22;54121;53.508;49.422;2022-07-15T10:32:00;35.80;20.80
67194;DHT22;54121;53.508;49.422;2022-07-15T10:34:34;36.10;20.30
67194;DHT22;54121;53.508;49.422;2022-07-15T10:37:12;35.90;20.90
67194;DHT22;54121;53.508;49.422;2022-07-15T10:39:58;36.10;20.90
67194;DHT22;54121;53.508;49.422;2022-07-15T10:43:08;36.00;20.30
67194;DHT22;54121;53.508;49.422;2022-07-15T10:45:35;35.50;21.70
67194;DHT22;54121;53.508;49.422;2022-07-15T10:48:27;35.40;21.80
67194;DHT22;54121;53.508;49.422;2022-07-15T10:50:54;34.90;22.40
67194;DHT22;54121;53.508;49.422;2022-07-15T10:53:24;34.70;23.00
67194;DHT22;54121;53.508;49.422;2022-07-15T10:55:52;34.30;23.10
67194;DHT22;54121;53.508;49.422;2022-07-15T10:58:18;33.90;23.80
67194;DHT22;54121;53.508;49.422;2022-07-15T11:00:46;34.20;23.70
67194;DHT22;54121;53.508;49.422;2022-07-15T11:03:19;34.80;22.90
67194;DHT22;54121;53.508;49.422;2022-07-15T11:13:58;34.40;22.80
67194;DHT22;54121;53.508;49.422;2022-07-15T11:16:42;34.80;22.20
67194;DHT22;54121;53.508;49.422;2022-07-15T11:19:11;34.50;21.30
67194;DHT22;54121;53.508;49.422;2022-07-15T11:21:38;34.50;21.40
67194;DHT22;54121;53.508;49.422;2022-07-15T11:24:07;34.90;21.40
67194;DHT22;54121;53.508;49.422;2022-07-15T11:26:47;34.70;21.40
67194;DHT22;54121;53.508;49.422;2022-07-15T11:29:20;35.00;21.40
67194;DHT22;54121;53.508;49.422;2022-07-15T11:31:55;35.30;21.00
67194;DHT22;54121;53.508;49.422;2022-07-15T11:34:22;36.30;18.90
67194;DHT22;54121;53.508;49.422;2022-07-15T11:36:58;36.20;19.80
67194;DHT22;54121;53.508;49.422;2022-07-15T11:39:28;36.60;19.50
67194;DHT22;54121;53.508;49.422;2022-07-15T11:41:54;36.60;19.40
67194;DHT22;54121;53.508;49.422;2022-07-15T11:44:48;36.70;18.90
67194;DHT22;54121;53.508;49.422;2022-07-15T11:47:14;36.90;19.00
67194;DHT22;54121;53.508;49.422;2022-07-15T11:50:02;36.90;18.90
67194;DHT22;54121;53.508;49.422;2022-07-15T11:52:36;37.20;18.60
67194;DHT22;54121;53.508;49.422;2022-07-15T11:55:05;37.20;18.70
67194;DHT22;54121;53.508;49.422;2022-07-15T11:57:33;37.60;18.40
67194;DHT22;54121;53.508;49.422;2022-07-15T12:00:06;38.10;17.70
67194;DHT22;54121;53.508;49.422;2022-07-15T12:02:33;37.90;17.90
67194;DHT22;54121;53.508;49.422;2022-07-15T12:05:05;37.20;18.10
67194;DHT22;54121;53.508;49.422;2022-07-15T12:07:58;37.50;18.00
67194;DHT22;54121;53.508;49.422;2022-07-15T12:10:34;38.10;17.50
67194;DHT22;54121;53.508;49.422;2022-07-15T12:13:07;38.00;17.90
67194;DHT22;54121;53.508;49.422;2022-07-15T12:15:34;37.90;18.30
67194;DHT22;54121;53.508;49.422;2022-07-15T12:18:01;38.20;17.90
67194;DHT22;54121;53.508;49.422;2022-07-15T12:20:28;38.30;18.00
67194;DHT22;54121;53.508;49.422;2022-07-15T12:23:08;38.40;17.90
67194;DHT22;54121;53.508;49.422;2022-07-15T12:25:35;38.00;18.70
67194;DHT22;54121;53.508;49.422;2022-07-15T12:28:02;38.40;18.10
67194;DHT22;54121;53.508;49.422;2022-07-15T12:30:37;38.20;18.10
67194;DHT22;54121;53.508;49.422;2022-07-15T12:33:21;37.60;18.50
67194;DHT22;54121;53.508;49.422;2022-07-15T12:35:48;37.80;18.40
67194;DHT22;54121;53.508;49.422;2022-07-15T12:38:30;37.70;18.50
67194;DHT22;54121;53.508;49.422;2022-07-15T12:41:08;37.50;18.40
67194;DHT22;54121;53.508;49.422;2022-07-15T12:46:15;38.20;18.20
67194;DHT22;54121;53.508;49.422;2022-07-15T12:48:46;37.60;18.50
67194;DHT22;54121;53.508;49.422;2022-07-15T12:51:15;37.50;18.70
67194;DHT22;54121;53.508;49.422;2022-07-15T12:53:42;37.90;18.10
67194;DHT22;54121;53.508;49.422;2022-07-15T12:56:10;37.90;18.00
67194;DHT22;54121;53.508;49.422;2022-07-15T12:58:36;37.60;18.40
67194;DHT22;54121;53.508;49.422;2022-07-15T13:01:12;37.60;18.50
67194;DHT22;54121;53.508;49.422;2022-07-15T13:03:40;38.00;18.10
67194;DHT22;54121;53.508;49.422;2022-07-15T13:06:08;37.70;18.20
67194;DHT22;54121;53.508;49.422;2022-07-15T13:08:38;37.20;19.10
67194;DHT22;54121;53.508;49.422;2022-07-15T13:11:07;37.60;19.00
67194;DHT22;54121;53.508;49.422;2022-07-15T13:13:35;37.20;19.30
67194;DHT22;54121;53.508;49.422;2022-07-15T13:16:04;36.90;20.00
67194;DHT22;54121;53.508;49.422;2022-07-15T13:18:32;37.00;19.80
67194;DHT22;54121;53.508;49.422;2022-07-15T13:20:59;37.80;18.90
67194;DHT22;54121;53.508;49.422;2022-07-15T13:23:26;37.10;19.60
67194;DHT22;54121;53.508;49.422;2022-07-15T13:25:53;37.70;19.00
67194;DHT22;54121;53.508;49.422;2022-07-15T13:28:21;37.50;19.10
67194;DHT22;54121;53.508;49.422;2022-07-15T13:30:48;37.40;19.00
67194;DHT22;54121;53.508;49.422;2022-07-15T13:33:16;36.70;20.00
67194;DHT22;54121;53.508;49.422;2022-07-15T13:35:43;36.30;20.20
67194;DHT22;54121;53.508;49.422;2022-07-15T13:38:09;36.50;20.20
67194;DHT22;54121;53.508;49.422;2022-07-15T13:40:36;36.40;20.60
67194;DHT22;54121;53.508;49.422;2022-07-15T13:43:02;36.40;20.50
67194;DHT22;54121;53.508;49.422;2022-07-15T13:45:29;36.60;20.30
67194;DHT22;54121;53.508;49.422;2022-07-15T13:47:55;37.10;19.80
67194;DHT22;54121;53.508;49.422;2022-07-15T13:50:22;37.30;19.60
67194;DHT22;54121;53.508;49.422;2022-07-15T13:53:33;37.10;19.70
67194;DHT22;54121;53.508;49.422;2022-07-15T13:56:11;36.80;20.00
67194;DHT22;54121;53.508;49.422;2022-07-15T13:58:38;37.00;19.60
67194;DHT22;54121;53.508;49.422;2022-07-15T14:01:05;36.70;19.90
67194;DHT22;54121;53.508;49.422;2022-07-15T14:03:31;36.60;20.10
67194;DHT22;54121;53.508;49.422;2022-07-15T14:05:58;36.80;20.00
67194;DHT22;54121;53.508;49.422;2022-07-15T14:08:24;37.00;19.80
67194;DHT22;54121;53.508;49.422;2022-07-15T14:10:57;37.30;19.60
67194;DHT22;54121;53.508;49.422;2022-07-15T14:13:29;37.80;18.80
67194;DHT22;54121;53.508;49.422;2022-07-15T14:16:02;37.60;19.00
67194;DHT22;54121;53.508;49.422;2022-07-15T14:18:28;37.70;19.00
67194;DHT22;54121;53.508;49.422;2022-07-15T14:21:13;37.40;19.10
67194;DHT22;54121;53.508;49.422;2022-07-15T14:23:42;37.20;19.40
67194;DHT22;54121;53.508;49.422;2022-07-15T14:26:10;36.90;20.00
67194;DHT22;54121;53.508;49.422;2022-07-15T14:28:37;36.90;20.10
67194;DHT22;54121;53.508;49.422;2022-07-15T14:31:06;36.80;20.30
67194;DHT22;54121;53.508;49.422;2022-07-15T14:33:33;36.60;20.30
67194;DHT22;54121;53.508;49.422;2022-07-15T14:36:00;36.30;20.50
67194;DHT22;54121;53.508;49.422;2022-07-15T14:38:27;36.20;20.80
67194;DHT22;54121;53.508;49.422;2022-07-15T14:40:54;36.00;21.00
67194;DHT22;54121;53.508;49.422;2022-07-15T14:43:20;35.60;21.30
67194;DHT22;54121;53.508;49.422;2022-07-15T14:45:47;35.30;21.90
67194;DHT22;54121;53.508;49.422;2022-07-15T14:48:13;34.90;22.40
67194;DHT22;54121;53.508;49.422;2022-07-15T14:50:40;34.30;22.80
67194;DHT22;54121;53.508;49.422;2022-07-15T14:53:06;33.70;24.00
67194;DHT22;54121;53.508;49.422;2022-07-15T14:55:33;33.30;24.00
67194;DHT22;54121;53.508;49.422;2022-07-15T14:57:59;33.30;24.30
67194;DHT22;54121;53.508;49.422;2022-07-15T15:00:27;33.40;24.20
67194;DHT22;54121;53.508;49.422;2022-07-15T15:02:53;33.40;24.40
67194;DHT22;54121;53.508;49.422;2022-07-15T15:05:26;33.50;24.70
67194;DHT22;54121;53.508;49.422;2022-07-15T15:07:53;33.60;24.50
67194;DHT22;54121;53.508;49.422;2022-07-15T15:10:19;33.40;24.70
67194;DHT22;54121;53.508;49.422;2022-07-15T15:12:46;33.10;25.40
67194;DHT22;54121;53.508;49.422;2022-07-15T15:15:12;32.90;25.50
67194;DHT22;54121;53.508;49.422;2022-07-15T15:17:39;32.80;25.80
67194;DHT22;54121;53.508;49.422;2022-07-15T15:20:06;32.50;25.50
67194;DHT22;54121;53.508;49.422;2022-07-15T15:22:34;32.90;26.20
67194;DHT22;54121;53.508;49.422;2022-07-15T15:25:03;32.60;26.50
67194;DHT22;54121;53.508;49.422;2022-07-15T15:27:30;32.60;26.70
67194;DHT22;54121;53.508;49.422;2022-07-15T15:29:56;32.70;25.60
67194;DHT22;54121;53.508;49.422;2022-07-15T15:32:23;32.90;26.30
67194;DHT22;54121;53.508;49.422;2022-07-15T15:34:50;32.90;26.40
67194;DHT22;54121;53.508;49.422;2022-07-15T15:37:17;32.60;26.90
67194;DHT22;54121;53.508;49.422;2022-07-15T15:39:43;32.40;27.00
67194;DHT22;54121;53.508;49.422;2022-07-15T15:42:10;32.50;26.00
67194;DHT22;54121;53.508;49.422;2022-07-15T15:44:37;32.30;27.50
67194;DHT22;54121;53.508;49.422;2022-07-15T15:47:05;32.10;27.90
67194;DHT22;54121;53.508;49.422;2022-07-15T15:49:32;31.90;27.60
67194;DHT22;54121;53.508;49.422;2022-07-15T15:52:10;31.80;27.90
67194;DHT22;54121;53.508;49.422;2022-07-15T15:54:37;31.90;27.90
67194;DHT22;54121;53.508;49.422;2022-07-15T15:57:04;31.70;28.40
67194;DHT22;54121;53.508;49.422;2022-07-15T15:59:30;31.60;28.30
67194;DHT22;54121;53.508;49.422;2022-07-15T16:02:02;31.30;29.80
67194;DHT22;54121;53.508;49.422;2022-07-15T16:04:35;31.10;29.00
67194;DHT22;54121;53.508;49.422;2022-07-15T16:07:23;30.70;30.40
67194;DHT22;54121;53.508;49.422;2022-07-15T16:09:49;30.70;29.40
67194;DHT22;54121;53.508;49.422;2022-07-15T16:12:16;30.60;28.50
67194;DHT22;54121;53.508;49.422;2022-07-15T16:14:43;30.40;29.10
67194;DHT22;54121;53.508;49.422;2022-07-15T16:17:09;30.30;30.00
67194;DHT22;54121;53.508;49.422;2022-07-15T16:19:40;30.40;30.00